Time;durP1;ratioP1;P1;durP2;ratioP2;P2;SDS_P1;SDS_P2;PMS_P1;PMS_P2;Temp;Humidity;BMP_temperature;BMP_pressure;BME280_temperature;BME280_humidity;BME280_pressure;Samples;Min_cycle;Max_cycle;Signal;HPM_P1;HPM_P2
2022/11/13 00:00:25;;;;;;;31.70;16.80;;;9.80;99.90;;;;;;5053447;28;20043;-71
2022/11/13 00:03:09;;;;;;;24.17;16.73;;;9.90;99.90;;;;;;5053565;28;20098;-71
2022/11/13 00:06:03;;;;;;;25.88;17.77;;;9.90;99.90;;;;;;5053637;28;20032;-71
2022/11/13 00:08:47;;;;;;;23.55;15.73;;;10.00;99.90;;;;;;5050718;28;20174;-72
2022/11/13 00:11:32;;;;;;;28.73;16.50;;;10.00;99.90;;;;;;5052990;28;20083;-72
2022/11/13 00:14:16;;;;;;;27.08;17.55;;;10.00;99.90;;;;;;5039940;28;20067;-72
2022/11/13 00:17:00;;;;;;;29.52;17.02;;;9.90;99.90;;;;;;5053332;28;20087;-71
2022/11/13 00:19:44;;;;;;;27.55;15.45;;;10.00;99.90;;;;;;5053297;28;20463;-72
2022/11/13 00:22:28;;;;;;;22.98;16.20;;;9.90;99.90;;;;;;5053313;28;20040;-72
2022/11/13 00:25:12;;;;;;;28.40;16.30;;;10.00;99.90;;;;;;5052208;28;20087;-72
2022/11/13 00:27:57;;;;;;;27.42;14.93;;;9.80;99.90;;;;;;5040234;28;20531;-72
2022/11/13 00:30:41;;;;;;;28.15;16.30;;;9.90;99.90;;;;;;5053164;28;20048;-71
2022/11/13 00:33:25;;;;;;;26.83;16.35;;;9.90;99.90;;;;;;5052985;28;20546;-68
2022/11/13 00:36:18;;;;;;;30.50;15.88;;;9.90;99.90;;;;;;5052947;28;20094;-68
2022/11/13 00:39:02;;;;;;;24.00;15.35;;;9.90;99.90;;;;;;5053501;28;20568;-70
2022/11/13 00:41:47;;;;;;;34.25;16.08;;;10.00;99.90;;;;;;5052849;28;20055;-73
2022/11/13 00:44:31;;;;;;;28.35;14.27;;;9.80;99.90;;;;;;5052029;28;20078;-68
2022/11/13 00:47:15;;;;;;;25.40;15.73;;;9.80;99.90;;;;;;5053107;28;20090;-72
2022/11/13 00:49:59;;;;;;;30.13;16.05;;;9.70;99.90;;;;;;5039390;28;20047;-72
2022/11/13 00:52:43;;;;;;;24.75;15.75;;;9.80;99.90;;;;;;5052947;28;20110;-72
2022/11/13 00:55:28;;;;;;;24.20;14.68;;;9.60;99.90;;;;;;5052424;28;20036;-71
2022/11/13 00:58:12;;;;;;;24.48;15.50;;;9.10;99.90;;;;;;5052289;28;20036;-72
2022/11/13 01:01:03;;;;;;;25.98;16.00;;;8.90;99.90;;;;;;5052770;28;20465;-72
2022/11/13 01:03:47;;;;;;;23.58;14.45;;;9.10;99.90;;;;;;5052602;28;20454;-71
2022/11/13 01:06:32;;;;;;;24.20;16.35;;;9.40;99.90;;;;;;5053039;28;20114;-72
2022/11/13 01:09:16;;;;;;;25.95;16.58;;;9.40;99.90;;;;;;5039501;28;20124;-72
2022/11/13 01:12:00;;;;;;;22.45;15.95;;;9.40;99.90;;;;;;5052423;28;20052;-72
2022/11/13 01:14:44;;;;;;;21.88;15.65;;;9.40;99.90;;;;;;5052643;28;20051;-71
2022/11/13 01:17:28;;;;;;;25.88;15.05;;;9.30;99.90;;;;;;5052739;28;20079;-71
2022/11/13 01:20:13;;;;;;;22.48;15.23;;;9.40;99.90;;;;;;5052820;28;20496;-72
2022/11/13 01:22:57;;;;;;;23.10;15.65;;;9.40;99.90;;;;;;5052051;28;20578;-72
2022/11/13 01:25:42;;;;;;;26.05;15.57;;;9.30;99.90;;;;;;5052179;28;20116;-72
2022/11/13 01:28:26;;;;;;;26.88;16.08;;;9.40;99.90;;;;;;5052456;28;20118;-72
2022/11/13 01:31:14;;;;;;;21.80;15.57;;;9.50;99.90;;;;;;5052188;28;20098;-71
2022/11/13 01:33:58;;;;;;;22.40;14.50;;;9.40;99.90;;;;;;5052161;28;20044;-72
2022/11/13 01:36:43;;;;;;;37.30;15.93;;;9.30;99.90;;;;;;5052233;28;20140;-72
2022/11/13 01:39:27;;;;;;;24.75;15.48;;;9.20;99.90;;;;;;5051649;28;20036;-71
2022/11/13 01:42:11;;;;;;;34.28;15.90;;;9.40;99.90;;;;;;5052602;28;20469;-72
2022/11/13 01:44:59;;;;;;;27.45;16.20;;;9.50;99.90;;;;;;5039426;28;20550;-71
2022/11/13 01:47:43;;;;;;;29.02;17.45;;;9.50;99.90;;;;;;5052472;28;20512;-72
2022/11/13 01:50:27;;;;;;;30.55;17.73;;;9.60;99.90;;;;;;5042359;28;20149;-72
2022/11/13 01:53:12;;;;;;;25.05;16.67;;;9.60;99.90;;;;;;5051910;28;20044;-71
2022/11/13 01:55:56;;;;;;;28.38;16.25;;;9.70;99.90;;;;;;5052417;28;20056;-72
2022/11/13 01:58:44;;;;;;;23.65;15.15;;;9.60;99.90;;;;;;5040269;28;20083;-72
2022/11/13 02:01:28;;;;;;;25.13;15.88;;;9.60;99.90;;;;;;5051154;28;20456;-71
2022/11/13 02:04:13;;;;;;;29.25;16.02;;;9.60;99.90;;;;;;5052154;28;20095;-70
2022/11/13 02:07:00;;;;;;;23.17;14.48;;;9.20;99.90;;;;;;5052008;28;20052;-73
2022/11/13 02:09:56;;;;;;;26.08;15.32;;;9.40;99.90;;;;;;5051937;28;20055;-72
2022/11/13 02:12:45;;;;;;;28.75;15.35;;;9.10;99.90;;;;;;5051378;28;20098;-72
2022/11/13 02:15:32;;;;;;;26.05;14.68;;;9.10;99.90;;;;;;5050509;28;20040;-72
2022/11/13 02:18:20;;;;;;;29.25;14.38;;;9.10;99.90;;;;;;5052168;28;20052;-71
2022/11/13 02:21:35;;;;;;;23.75;14.80;;;8.60;99.90;;;;;;5051921;28;20041;-72
2022/11/13 02:24:31;;;;;;;24.85;16.48;;;8.20;99.90;;;;;;5052897;28;20072;-72
2022/11/13 02:27:26;;;;;;;30.40;17.63;;;8.10;99.90;;;;;;5055362;28;20496;-71
2022/11/13 02:30:26;;;;;;;26.08;16.52;;;8.10;99.90;;;;;;5055327;28;20095;-71
2022/11/13 02:33:30;;;;;;;31.08;15.68;;;8.40;99.90;;;;;;5043893;28;20036;-70
2022/11/13 02:36:15;;;;;;;33.50;17.48;;;8.20;99.90;;;;;;5054634;28;20040;-69
2022/11/13 02:39:03;;;;;;;26.70;16.13;;;8.10;99.90;;;;;;5054979;28;20036;-70
2022/11/13 02:41:47;;;;;;;27.83;17.00;;;8.20;99.90;;;;;;5055299;28;20124;-71
2022/11/13 02:44:31;;;;;;;30.42;17.52;;;8.40;99.90;;;;;;5055296;28;20043;-70
2022/11/13 02:47:16;;;;;;;26.55;17.17;;;8.70;99.90;;;;;;5055117;28;20049;-71
2022/11/13 02:50:01;;;;;;;26.23;15.68;;;8.50;99.90;;;;;;5041823;28;20385;-71
2022/11/13 02:52:45;;;;;;;26.65;17.02;;;8.40;99.90;;;;;;5055114;28;20059;-71
2022/11/13 02:55:29;;;;;;;25.15;15.35;;;8.40;99.90;;;;;;5054985;28;20141;-72
2022/11/13 02:58:13;;;;;;;24.10;15.45;;;8.30;99.90;;;;;;5055341;28;20512;-71
2022/11/13 03:00:59;;;;;;;37.10;18.90;;;7.90;99.90;;;;;;5054750;28;20075;-72
2022/11/13 03:03:43;;;;;;;28.55;17.10;;;8.20;99.90;;;;;;5042545;28;20082;-72
2022/11/13 03:06:27;;;;;;;26.23;16.90;;;8.40;99.90;;;;;;5054236;28;20095;-71
2022/11/13 03:09:12;;;;;;;35.67;17.98;;;8.40;99.90;;;;;;5026426;28;20032;-71
2022/11/13 03:11:56;;;;;;;30.52;17.48;;;8.70;99.90;;;;;;5054559;28;20624;-72
2022/11/13 03:14:40;;;;;;;29.77;16.67;;;8.70;99.90;;;;;;5054869;28;20040;-71
2022/11/13 03:17:24;;;;;;;24.70;15.70;;;8.60;99.90;;;;;;5054378;28;20094;-71
2022/11/13 03:20:08;;;;;;;32.60;17.15;;;8.30;99.90;;;;;;5054432;28;20060;-72
2022/11/13 03:22:52;;;;;;;24.58;16.02;;;7.90;99.90;;;;;;5042010;28;20048;-70
2022/11/13 03:25:36;;;;;;;24.92;15.48;;;7.80;99.90;;;;;;5054190;28;20554;-70
2022/11/13 03:28:21;;;;;;;28.08;16.08;;;7.70;99.90;;;;;;5053651;28;20093;-68
2022/11/13 03:31:05;;;;;;;28.48;16.55;;;8.10;99.90;;;;;;5054218;28;20119;-68
2022/11/13 03:33:52;;;;;;;27.85;17.13;;;8.10;99.90;;;;;;5054304;28;20071;-70
2022/11/13 03:36:36;;;;;;;24.85;14.88;;;7.80;99.90;;;;;;5041331;28;20203;-71
2022/11/13 03:39:20;;;;;;;25.92;15.43;;;7.60;99.90;;;;;;5052732;28;20055;-68
2022/11/13 03:42:05;;;;;;;30.95;16.25;;;7.80;99.90;;;;;;5051971;28;20439;-69
2022/11/13 03:44:49;;;;;;;24.00;15.23;;;7.80;99.90;;;;;;5052630;28;20512;-68
2022/11/13 03:47:33;;;;;;;23.30;15.82;;;8.00;99.90;;;;;;5053954;28;20118;-68
2022/11/13 03:50:17;;;;;;;24.60;15.75;;;8.10;99.90;;;;;;5053673;28;20122;-68
2022/11/13 03:53:01;;;;;;;20.65;14.82;;;8.00;99.90;;;;;;5054222;28;20067;-67
2022/11/13 03:55:46;;;;;;;23.42;14.50;;;7.80;99.90;;;;;;5054006;28;20036;-68
2022/11/13 03:58:30;;;;;;;24.15;14.80;;;7.60;99.90;;;;;;5053787;28;20551;-67
2022/11/13 04:01:14;;;;;;;28.10;15.85;;;7.70;99.90;;;;;;5041428;28;20507;-68
2022/11/13 04:03:59;;;;;;;21.33;13.95;;;7.80;99.90;;;;;;5053448;28;20103;-67
2022/11/13 04:06:43;;;;;;;24.00;14.38;;;7.80;99.90;;;;;;5053771;28;20051;-67
2022/11/13 04:09:27;;;;;;;25.33;14.63;;;7.90;99.90;;;;;;5053560;28;20474;-68
2022/11/13 04:12:11;;;;;;;23.95;14.18;;;7.80;99.90;;;;;;5053847;28;20076;-68
2022/11/13 04:14:55;;;;;;;19.90;13.30;;;7.50;99.90;;;;;;5041997;28;20047;-67
2022/11/13 04:17:39;;;;;;;22.48;13.27;;;7.20;99.90;;;;;;5053181;28;20071;-68
2022/11/13 04:20:24;;;;;;;21.65;14.63;;;7.40;99.90;;;;;;5053392;28;20118;-68
2022/11/13 04:23:11;;;;;;;21.80;14.63;;;7.60;99.90;;;;;;5053171;28;20086;-67
2022/11/13 04:25:56;;;;;;;23.63;13.27;;;7.70;99.90;;;;;;5053594;28;20044;-68
2022/11/13 04:28:40;;;;;;;18.63;13.25;;;7.70;99.90;;;;;;5053145;28;20044;-67
2022/11/13 04:31:25;;;;;;;26.05;14.80;;;7.30;99.90;;;;;;5052023;28;20055;-67
2022/11/13 04:34:09;;;;;;;20.92;14.27;;;7.30;99.90;;;;;;5053158;28;20086;-67
2022/11/13 04:36:53;;;;;;;26.05;14.45;;;7.30;99.90;;;;;;5038875;28;20036;-67
2022/11/13 04:39:37;;;;;;;26.10;14.88;;;7.40;99.90;;;;;;5052815;28;20032;-67
2022/11/13 04:45:27;;;;;;;29.42;14.93;;;7.60;99.90;;;;;;5039223;28;20028;-68
2022/11/13 04:48:11;;;;;;;23.27;14.80;;;7.60;99.90;;;;;;5052853;28;20182;-68
2022/11/13 04:50:59;;;;;;;22.27;14.25;;;7.00;99.90;;;;;;5053002;28;20056;-67
2022/11/13 04:53:43;;;;;;;25.95;14.90;;;6.70;99.90;;;;;;5052765;28;20110;-68
2022/11/13 04:56:27;;;;;;;24.23;13.73;;;6.60;99.90;;;;;;5052798;28;20036;-67
2022/11/13 04:59:11;;;;;;;21.13;13.40;;;6.90;99.90;;;;;;5040004;28;20443;-68
2022/11/13 05:01:55;;;;;;;25.60;13.85;;;6.90;99.90;;;;;;5052730;28;20036;-67
2022/11/13 05:04:39;;;;;;;21.15;13.18;;;6.80;99.90;;;;;;5052624;28;20053;-67
2022/11/13 05:07:25;;;;;;;21.05;13.68;;;7.10;99.90;;;;;;5052876;28;20040;-69
2022/11/13 05:10:09;;;;;;;19.90;13.55;;;7.20;99.90;;;;;;5052816;28;20554;-68
2022/11/13 05:12:57;;;;;;;20.13;13.75;;;7.30;99.90;;;;;;5040502;28;20102;-67
2022/11/13 05:15:42;;;;;;;22.40;14.15;;;7.30;99.90;;;;;;5052394;28;20044;-67
2022/11/13 05:18:26;;;;;;;23.02;14.02;;;7.00;99.90;;;;;;5052070;28;20392;-68
2022/11/13 05:21:10;;;;;;;22.83;12.95;;;7.20;99.90;;;;;;5051227;28;20040;-67
2022/11/13 05:23:55;;;;;;;24.92;13.55;;;7.30;99.90;;;;;;5051413;28;20044;-68
2022/11/13 05:26:39;;;;;;;30.02;13.65;;;7.50;99.90;;;;;;5051532;28;20036;-68
2022/11/13 05:29:24;;;;;;;21.52;12.57;;;7.60;99.90;;;;;;5052007;28;20144;-67
2022/11/13 05:32:08;;;;;;;23.60;13.68;;;7.70;99.90;;;;;;5052219;28;20110;-67
2022/11/13 05:34:52;;;;;;;17.23;11.95;;;7.60;99.90;;;;;;5039178;28;20048;-68
2022/11/13 05:37:36;;;;;;;21.70;14.10;;;7.50;99.90;;;;;;5052424;28;20417;-68
2022/11/13 05:40:20;;;;;;;18.77;12.60;;;7.70;99.90;;;;;;5052225;28;20106;-68
2022/11/13 05:43:04;;;;;;;22.40;14.63;;;7.70;99.90;;;;;;5052323;28;20079;-68
2022/11/13 05:45:48;;;;;;;20.92;13.52;;;7.60;99.90;;;;;;5051779;28;20048;-68
2022/11/13 05:48:33;;;;;;;18.55;12.05;;;7.50;99.90;;;;;;5051314;28;20571;-68
2022/11/13 05:51:20;;;;;;;22.70;13.00;;;7.30;99.90;;;;;;5052335;28;20455;-67
2022/11/13 05:54:05;;;;;;;22.05;13.25;;;7.30;99.90;;;;;;5052231;28;20109;-68
2022/11/13 05:56:49;;;;;;;20.77;13.57;;;7.40;99.90;;;;;;5051832;28;20103;-68
2022/11/13 05:59:33;;;;;;;22.50;13.77;;;7.30;99.90;;;;;;5053200;28;20040;-71
2022/11/13 06:02:17;;;;;;;21.85;14.48;;;7.40;99.90;;;;;;5056038;28;20087;-69
2022/11/13 06:05:02;;;;;;;22.35;14.23;;;7.30;99.90;;;;;;5055844;28;20131;-71
2022/11/13 06:07:48;;;;;;;25.15;15.02;;;7.20;99.90;;;;;;5056002;28;20040;-70
2022/11/13 06:10:32;;;;;;;21.95;14.50;;;7.10;99.90;;;;;;5056047;28;20124;-70
2022/11/13 06:13:16;;;;;;;28.10;16.08;;;7.20;99.90;;;;;;5056192;28;20071;-69
2022/11/13 06:16:04;;;;;;;24.73;16.98;;;7.30;99.90;;;;;;5055667;28;20091;-69
2022/11/13 06:18:49;;;;;;;27.33;17.33;;;7.40;99.90;;;;;;5055741;28;20056;-70
2022/11/13 06:21:38;;;;;;;29.33;17.73;;;7.50;99.90;;;;;;5055417;28;20036;-70
2022/11/13 06:24:23;;;;;;;30.85;18.17;;;7.50;99.90;;;;;;5055914;28;20139;-71
2022/11/13 06:27:07;;;;;;;24.92;16.75;;;7.40;99.90;;;;;;5055473;28;20097;-69
2022/11/13 06:29:51;;;;;;;26.75;18.52;;;7.30;99.90;;;;;;5054979;28;20499;-71
2022/11/13 06:32:35;;;;;;;23.75;17.25;;;7.50;99.90;;;;;;5055572;28;20036;-70
2022/11/13 06:35:19;;;;;;;28.20;18.02;;;7.60;99.90;;;;;;5055435;28;20039;-71
2022/11/13 06:38:03;;;;;;;26.75;18.15;;;7.60;99.90;;;;;;5055578;28;20040;-71
2022/11/13 06:40:47;;;;;;;30.05;19.08;;;7.30;99.90;;;;;;5055453;28;20040;-69
2022/11/13 06:43:31;;;;;;;24.63;17.25;;;7.30;99.90;;;;;;5054957;28;20147;-70
2022/11/13 06:46:21;;;;;;;24.17;16.25;;;7.40;99.90;;;;;;5054757;28;20056;-71
2022/11/13 06:49:05;;;;;;;25.10;16.35;;;7.50;99.90;;;;;;5055213;28;20555;-71
2022/11/13 06:51:49;;;;;;;26.60;16.70;;;7.40;99.90;;;;;;5051124;28;20075;-69
2022/11/13 06:54:34;;;;;;;24.08;16.27;;;7.40;99.90;;;;;;5055662;28;20188;-71
2022/11/13 06:57:18;;;;;;;28.33;18.00;;;7.40;99.90;;;;;;5054577;28;20036;-71
2022/11/13 07:00:03;;;;;;;25.23;16.92;;;7.40;99.90;;;;;;5055320;28;20044;-72
2022/11/13 07:02:49;;;;;;;30.70;19.67;;;7.40;99.90;;;;;;5055110;28;20075;-68
2022/11/13 07:05:36;;;;;;;31.05;18.20;;;7.40;99.90;;;;;;5054617;28;20059;-67
2022/11/13 07:08:20;;;;;;;27.15;17.83;;;7.30;99.90;;;;;;5055007;28;20075;-67
2022/11/13 07:11:06;;;;;;;34.25;16.33;;;7.30;99.90;;;;;;5041646;28;20048;-68
2022/11/13 07:13:51;;;;;;;32.30;16.67;;;7.30;99.90;;;;;;5054619;28;20035;-67
2022/11/13 07:16:35;;;;;;;29.77;17.42;;;6.90;99.90;;;;;;5054597;28;20044;-67
2022/11/13 07:19:19;;;;;;;26.02;18.15;;;6.70;99.90;;;;;;5054635;28;20500;-67
2022/11/13 07:22:03;;;;;;;26.90;16.80;;;7.00;99.90;;;;;;5054507;28;20048;-67
2022/11/13 07:24:47;;;;;;;30.20;17.17;;;7.10;99.90;;;;;;5042472;28;20086;-68
2022/11/13 07:27:31;;;;;;;29.70;17.90;;;7.20;99.90;;;;;;5054155;28;20087;-67
2022/11/13 07:30:16;;;;;;;28.63;16.70;;;7.30;99.90;;;;;;5054452;28;20071;-67
2022/11/13 07:33:02;;;;;;;26.60;17.02;;;7.30;99.90;;;;;;5054078;28;20028;-67
2022/11/13 07:35:46;;;;;;;29.85;18.60;;;7.40;99.90;;;;;;5053801;28;20116;-68
2022/11/13 07:38:31;;;;;;;25.13;17.05;;;7.30;99.90;;;;;;5038220;28;20044;-67
2022/11/13 07:41:15;;;;;;;26.90;17.05;;;7.30;99.90;;;;;;5054076;28;20040;-68
2022/11/13 07:43:59;;;;;;;25.08;17.98;;;7.40;99.90;;;;;;5057590;28;20397;-68
2022/11/13 07:46:43;;;;;;;27.00;18.38;;;7.40;99.90;;;;;;5057329;28;20048;-67
2022/11/13 07:49:27;;;;;;;30.55;18.13;;;7.70;99.90;;;;;;5057289;28;20079;-69
2022/11/13 07:52:11;;;;;;;30.42;19.10;;;7.70;99.90;;;;;;5055909;28;20044;-70
2022/11/13 07:54:55;;;;;;;26.05;18.08;;;7.70;99.90;;;;;;5053934;28;20147;-71
2022/11/13 07:57:40;;;;;;;28.48;17.25;;;7.60;99.90;;;;;;5056689;28;20043;-71
2022/11/13 08:00:28;;;;;;;49.22;17.55;;;7.60;99.90;;;;;;5063677;28;20182;-71
2022/11/13 08:03:16;;;;;;;83.95;18.65;;;7.50;99.90;;;;;;5058067;28;20028;-71
2022/11/13 08:06:03;;;;;;;46.85;17.63;;;7.70;99.90;;;;;;5041545;28;20055;-71
2022/11/13 08:08:48;;;;;;;130.05;20.67;;;7.60;99.90;;;;;;5035518;28;20044;-71
2022/11/13 08:11:32;;;;;;;71.13;18.70;;;7.60;99.90;;;;;;5047345;28;20055;-71
2022/11/13 08:14:17;;;;;;;38.13;18.65;;;7.50;99.90;;;;;;5041822;28;20396;-72
2022/11/13 08:17:01;;;;;;;38.67;17.33;;;7.70;99.90;;;;;;5037822;28;20044;-71
2022/11/13 08:19:45;;;;;;;26.60;17.52;;;7.70;99.90;;;;;;5048376;28;20120;-70
2022/11/13 08:22:29;;;;;;;28.58;18.85;;;7.80;99.90;;;;;;5044215;28;20032;-71
2022/11/13 08:25:13;;;;;;;35.47;20.63;;;7.80;99.90;;;;;;5041144;28;20048;-71
2022/11/13 08:27:58;;;;;;;28.55;18.77;;;8.00;99.90;;;;;;5034347;28;20092;-70
2022/11/13 08:30:44;;;;;;;28.85;17.92;;;8.10;99.90;;;;;;5034026;28;20593;-71
2022/11/13 08:33:29;;;;;;;25.92;17.70;;;8.30;99.90;;;;;;5039150;28;20496;-69
2022/11/13 08:36:13;;;;;;;23.52;16.23;;;8.40;99.90;;;;;;5038934;28;20048;-67
2022/11/13 08:38:57;;;;;;;24.17;15.50;;;8.70;99.90;;;;;;5038618;28;20091;-71
2022/11/13 08:41:41;;;;;;;24.40;16.80;;;8.90;99.90;;;;;;5049741;28;20040;-71
2022/11/13 08:44:25;;;;;;;22.83;15.63;;;9.00;99.90;;;;;;5046750;28;20091;-72
2022/11/13 08:47:10;;;;;;;22.60;14.52;;;9.10;99.90;;;;;;5042194;28;20066;-71
2022/11/13 08:49:54;;;;;;;21.83;14.65;;;9.20;99.90;;;;;;5042826;28;20063;-72
2022/11/13 08:52:39;;;;;;;17.13;12.05;;;9.80;99.90;;;;;;5045821;28;20179;-71
2022/11/13 08:55:24;;;;;;;15.43;11.80;;;10.00;99.90;;;;;;5039435;28;20032;-72
2022/11/13 08:58:08;;;;;;;19.50;12.65;;;10.10;99.90;;;;;;5048937;28;20526;-71
2022/11/13 09:00:58;;;;;;;19.85;12.23;;;10.40;99.90;;;;;;5044512;28;20056;-71
2022/11/13 09:03:42;;;;;;;17.10;10.25;;;10.60;99.90;;;;;;5043298;28;20035;-68
2022/11/13 09:06:26;;;;;;;16.02;11.38;;;11.00;99.90;;;;;;5052996;28;20504;-68
2022/11/13 09:09:11;;;;;;;17.45;10.52;;;11.50;99.90;;;;;;5041066;28;20055;-67
2022/11/13 09:11:55;;;;;;;15.38;10.43;;;11.70;99.90;;;;;;5046979;28;20066;-68
2022/11/13 09:14:39;;;;;;;13.57;9.70;;;12.00;99.90;;;;;;5047864;28;20504;-67
2022/11/13 09:17:23;;;;;;;20.63;10.23;;;12.20;99.90;;;;;;5048316;28;20115;-68
2022/11/13 09:20:08;;;;;;;12.80;10.20;;;12.40;99.90;;;;;;5047042;28;20099;-68
2022/11/13 09:23:03;;;;;;;13.52;9.90;;;12.70;99.90;;;;;;5037799;28;20076;-67
2022/11/13 09:25:48;;;;;;;14.88;9.73;;;13.20;99.90;;;;;;5048344;28;20190;-67
2022/11/13 09:28:32;;;;;;;10.15;8.70;;;13.50;99.90;;;;;;5045939;28;20044;-67
2022/11/13 09:31:16;;;;;;;12.05;9.57;;;13.80;99.90;;;;;;5042384;28;20501;-68
2022/11/13 09:34:00;;;;;;;10.90;8.98;;;13.90;99.90;;;;;;5048872;28;20096;-68
2022/11/13 09:36:45;;;;;;;12.18;9.07;;;14.30;99.90;;;;;;5053792;28;20047;-67
2022/11/13 09:39:29;;;;;;;9.98;8.02;;;14.00;99.90;;;;;;5053081;28;20397;-68
2022/11/13 09:42:21;;;;;;;14.77;9.25;;;13.70;99.90;;;;;;5055527;28;20048;-68
2022/11/13 09:45:11;;;;;;;12.07;9.13;;;13.50;99.90;;;;;;5055864;28;20500;-68
2022/11/13 09:47:58;;;;;;;13.45;8.80;;;13.30;99.90;;;;;;5051644;28;20068;-67
2022/11/13 09:50:42;;;;;;;12.30;9.13;;;13.70;99.90;;;;;;5057575;28;20627;-68
2022/11/13 09:53:33;;;;;;;11.35;8.00;;;14.10;99.90;;;;;;5053833;28;20040;-69
2022/11/13 09:56:26;;;;;;;11.65;7.88;;;14.40;99.90;;;;;;5062393;28;20105;-70
2022/11/13 09:59:39;;;;;;;11.27;7.78;;;15.10;99.90;;;;;;5055154;28;20027;-67
2022/11/13 10:02:32;;;;;;;9.95;8.45;;;14.70;99.90;;;;;;5056402;28;20553;-72
2022/11/13 10:05:35;;;;;;;10.23;8.38;;;15.10;99.90;;;;;;5054621;28;20692;-68
2022/11/13 10:08:43;;;;;;;12.93;8.07;;;15.70;99.90;;;;;;5056381;28;20036;-68
2022/11/13 10:12:06;;;;;;;9.88;8.10;;;15.70;99.90;;;;;;5055430;28;20087;-70
2022/11/13 10:14:54;;;;;;;11.90;8.07;;;15.70;99.90;;;;;;5085936;28;20520;-71
2022/11/13 10:17:45;;;;;;;11.63;8.40;;;15.80;99.90;;;;;;5058095;28;20044;-72
2022/11/13 10:20:40;;;;;;;11.93;7.97;;;16.20;99.90;;;;;;5055472;28;20105;-71
2022/11/13 10:23:34;;;;;;;15.60;11.57;;;16.40;99.90;;;;;;5056156;28;20036;-71
2022/11/13 10:26:21;;;;;;;12.13;7.90;;;16.50;99.90;;;;;;5053056;28;20180;-72
2022/11/13 10:29:14;;;;;;;9.38;8.10;;;17.30;99.90;;;;;;5054345;28;20503;-71
2022/11/13 10:31:59;;;;;;;12.90;6.95;;;17.90;99.90;;;;;;5054689;28;20083;-69
2022/11/13 10:34:53;;;;;;;11.95;6.78;;;17.60;99.90;;;;;;5061151;28;20098;-68
2022/11/13 10:37:59;;;;;;;8.80;6.90;;;18.00;99.90;;;;;;5050372;28;20498;-68
2022/11/13 10:40:43;;;;;;;10.20;7.32;;;18.20;99.90;;;;;;5050588;28;20047;-68
2022/11/13 10:43:27;;;;;;;11.07;7.28;;;18.20;99.90;;;;;;5057258;28;20035;-68
2022/11/13 10:46:19;;;;;;;8.35;5.60;;;19.10;99.90;;;;;;5064155;28;20043;-68
2022/11/13 10:49:19;;;;;;;11.80;5.95;;;18.70;99.90;;;;;;5052178;28;20123;-68
2022/11/13 10:52:03;;;;;;;6.95;6.13;;;20.20;99.40;;;;;;5056305;28;20044;-68
2022/11/13 10:54:48;;;;;;;7.45;5.93;;;20.30;98.00;;;;;;5055209;28;20075;-68
2022/11/13 10:57:33;;;;;;;7.05;5.45;;;19.90;98.40;;;;;;5069232;28;20036;-68
2022/11/13 11:00:40;;;;;;;7.65;5.82;;;20.10;98.20;;;;;;5065139;28;20102;-68
2022/11/13 11:03:26;;;;;;;8.13;5.80;;;20.50;97.60;;;;;;5060582;28;20044;-68
2022/11/13 11:06:10;;;;;;;9.88;6.65;;;20.80;98.10;;;;;;5050519;28;20087;-68
2022/11/13 11:09:05;;;;;;;8.15;5.82;;;20.30;98.40;;;;;;5061263;28;20039;-68
2022/11/13 11:12:14;;;;;;;9.95;6.60;;;19.80;98.50;;;;;;5051372;28;20051;-71
2022/11/13 11:15:03;;;;;;;9.63;6.63;;;20.30;98.40;;;;;;5050942;28;20062;-68
2022/11/13 11:17:50;;;;;;;8.50;5.90;;;19.90;98.80;;;;;;5045616;28;20143;-69
2022/11/13 11:20:37;;;;;;;9.85;5.55;;;19.90;98.10;;;;;;5064591;28;20116;-71
2022/11/13 11:23:45;;;;;;;10.32;6.35;;;19.90;98.50;;;;;;5063844;28;20127;-69
2022/11/13 11:26:39;;;;;;;9.70;7.50;;;19.10;99.40;;;;;;5054379;28;20098;-71
2022/11/13 11:29:40;;;;;;;13.07;7.40;;;18.40;99.90;;;;;;5054093;28;20098;-69
2022/11/13 11:32:30;;;;;;;8.85;6.90;;;18.60;99.90;;;;;;5052706;28;20087;-70
2022/11/13 11:35:18;;;;;;;10.80;7.30;;;18.70;99.90;;;;;;5053107;28;20448;-71
2022/11/13 11:38:17;;;;;;;8.48;6.70;;;18.50;99.90;;;;;;5045453;28;20055;-71
2022/11/13 11:41:16;;;;;;;9.15;7.03;;;18.70;99.90;;;;;;5052634;28;20064;-71
2022/11/13 11:44:29;;;;;;;8.05;6.85;;;19.30;99.80;;;;;;5052334;28;20056;-69
2022/11/13 11:47:16;;;;;;;12.75;6.55;;;19.20;99.90;;;;;;5053799;28;20056;-72
2022/11/13 11:50:02;;;;;;;13.10;8.52;;;20.10;99.30;;;;;;5054021;28;20094;-70
2022/11/13 11:52:46;;;;;;;13.68;6.40;;;20.80;97.00;;;;;;5053969;28;20067;-71
2022/11/13 11:56:12;;;;;;;16.65;7.13;;;21.10;96.40;;;;;;5053563;28;20035;-67
2022/11/13 11:59:16;;;;;;;12.32;7.80;;;22.00;96.20;;;;;;5042290;28;20071;-72
2022/11/13 12:02:29;;;;;;;12.68;7.35;;;22.00;95.30;;;;;;5048296;28;20063;-70
2022/11/13 12:05:21;;;;;;;14.30;10.63;;;20.80;96.50;;;;;;5049742;28;20079;-71
2022/11/13 12:08:25;;;;;;;10.13;7.10;;;20.70;96.50;;;;;;5044492;28;20617;-70
2022/11/13 12:11:21;;;;;;;76.03;60.05;;;21.10;96.10;;;;;;5049641;28;20515;-69
2022/11/13 12:14:37;;;;;;;15.57;11.10;;;21.20;97.20;;;;;;5051903;28;20079;-68
2022/11/13 12:17:43;;;;;;;15.35;8.00;;;21.40;96.30;;;;;;5048962;28;20043;-68
2022/11/13 12:20:38;;;;;;;16.60;10.90;;;22.00;95.50;;;;;;5047764;28;20052;-68
2022/11/13 12:23:25;;;;;;;9.32;7.28;;;22.80;94.20;;;;;;5052969;28;20063;-68
2022/11/13 12:26:24;;;;;;;58.88;39.03;;;23.40;93.50;;;;;;5053014;28;20077;-68
2022/11/13 12:29:39;;;;;;;11.15;8.15;;;23.60;93.00;;;;;;5048647;28;20040;-68
2022/11/13 12:32:49;;;;;;;11.65;7.47;;;24.40;91.80;;;;;;5046853;28;20040;-68
2022/11/13 12:35:34;;;;;;;12.38;8.48;;;23.60;92.80;;;;;;5052807;28;20079;-68
2022/11/13 12:38:28;;;;;;;17.52;11.30;;;24.10;91.90;;;;;;5052875;28;20040;-68
2022/11/13 12:41:28;;;;;;;6.70;5.45;;;24.20;91.80;;;;;;5053001;28;20067;-69
2022/11/13 12:44:14;;;;;;;81.75;45.22;;;23.90;92.00;;;;;;5045624;28;20040;-69
2022/11/13 12:47:00;;;;;;;19.40;11.48;;;24.10;92.10;;;;;;5052430;28;20111;-69
2022/11/13 12:49:45;;;;;;;10.38;7.38;;;24.80;91.00;;;;;;5052352;28;20066;-70
2022/11/13 12:52:29;;;;;;;22.10;13.60;;;24.60;90.60;;;;;;5040714;28;20044;-70
2022/11/13 12:55:31;;;;;;;26.75;16.15;;;24.20;91.20;;;;;;5052814;28;20136;-71
2022/11/13 12:58:30;;;;;;;30.65;20.98;;;24.70;92.20;;;;;;5052665;28;20035;-70
2022/11/13 13:01:18;;;;;;;12.40;9.07;;;25.30;90.90;;;;;;5042064;28;20130;-69
2022/11/13 13:04:27;;;;;;;13.60;10.40;;;25.00;90.10;;;;;;5052854;28;20036;-70
2022/11/13 13:07:23;;;;;;;18.38;8.93;;;24.80;90.10;;;;;;5052589;28;20090;-70
2022/11/13 13:10:29;;;;;;;9.77;7.40;;;24.40;90.40;;;;;;5051476;28;20106;-71
2022/11/13 13:13:38;;;;;;;11.30;8.93;;;24.70;90.20;;;;;;5042977;28;20070;-69
2022/11/13 13:16:25;;;;;;;9.75;7.47;;;25.20;90.00;;;;;;5040972;28;20044;-71
2022/11/13 13:19:31;;;;;;;8.98;6.65;;;25.50;90.10;;;;;;5052260;28;20089;-71
2022/11/13 13:22:32;;;;;;;9.45;6.30;;;26.00;89.90;;;;;;5052188;28;20099;-70
2022/11/13 13:25:31;;;;;;;9.57;7.97;;;26.30;90.10;;;;;;5052278;28;20118;-71
2022/11/13 13:28:23;;;;;;;18.95;10.55;;;26.00;90.10;;;;;;5041038;28;20044;-68
2022/11/13 13:31:40;;;;;;;11.70;7.82;;;26.40;88.30;;;;;;5052147;28;20044;-68
2022/11/13 13:34:43;;;;;;;12.73;9.80;;;25.50;90.20;;;;;;5051949;28;20420;-70
2022/11/13 13:37:40;;;;;;;13.05;8.15;;;25.70;89.20;;;;;;5052437;28;20047;-71
2022/11/13 13:40:48;;;;;;;23.80;11.32;;;26.10;87.50;;;;;;5042537;28;20043;-69
2022/11/13 13:43:41;;;;;;;10.55;5.80;;;26.00;88.40;;;;;;5052207;28;20063;-70
2022/11/13 13:46:29;;;;;;;6.60;5.07;;;26.40;87.70;;;;;;5052221;28;20059;-71
2022/11/13 13:49:18;;;;;;;11.20;5.80;;;26.00;87.70;;;;;;5052275;28;20508;-70
2022/11/13 13:52:04;;;;;;;7.72;5.25;;;25.80;89.00;;;;;;5050215;28;20039;-69
2022/11/13 13:54:48;;;;;;;8.38;4.40;;;26.40;87.20;;;;;;5051907;28;20063;-68
2022/11/13 13:57:39;;;;;;;9.23;5.03;;;27.40;85.80;;;;;;5039526;28;20090;-69
2022/11/13 14:00:24;;;;;;;5.70;4.85;;;28.80;82.90;;;;;;5051556;28;20066;-68
2022/11/13 14:03:19;;;;;;;6.43;4.43;;;29.50;81.70;;;;;;5044311;28;20079;-68
2022/11/13 14:06:30;;;;;;;5.22;3.90;;;27.30;82.00;;;;;;5045062;28;20489;-68
2022/11/13 14:09:23;;;;;;;8.82;4.90;;;27.60;83.30;;;;;;5034713;28;20493;-67
2022/11/13 14:12:18;;;;;;;5.72;4.32;;;28.80;81.60;;;;;;5037382;28;20472;-68
2022/11/13 14:15:20;;;;;;;5.18;4.22;;;26.90;83.30;;;;;;5032045;28;20075;-68
2022/11/13 14:18:12;;;;;;;6.40;4.05;;;27.00;82.40;;;;;;5041661;28;20091;-68
2022/11/13 14:20:59;;;;;;;6.68;4.00;;;26.30;83.60;;;;;;5037784;28;20036;-67
2022/11/13 14:23:49;;;;;;;6.78;4.18;;;24.80;87.30;;;;;;5044474;28;20039;-68
2022/11/13 14:26:33;;;;;;;10.55;4.55;;;26.80;84.80;;;;;;5047219;28;20080;-68
2022/11/13 14:29:31;;;;;;;7.25;4.68;;;27.50;83.60;;;;;;5039148;28;20082;-67